Time;durP1;ratioP1;P1;durP2;ratioP2;P2;SDS_P1;SDS_P2;PMS_P1;PMS_P2;Temp;Humidity;BMP_temperature;BMP_pressure;BME280_temperature;BME280_humidity;BME280_pressure;Samples;Min_cycle;Max_cycle;Signal;HPM_P1;HPM_P2
2024/03/19 00:01:14;;;;;;;5.93;3.28;;;;;;;17.82;45.34;101503.06;4995804;28;20212;-61
2024/03/19 00:03:39;;;;;;;6.47;3.03;;;;;;;17.81;45.62;101504.06;4995477;28;20037;-62
2024/03/19 00:06:04;;;;;;;4.45;3.25;;;;;;;17.83;45.21;101499.34;4977796;28;20065;-62
2024/03/19 00:08:30;;;;;;;6.25;3.00;;;;;;;17.80;44.98;101507.81;4977986;28;20211;-62
2024/03/19 00:10:55;;;;;;;7.07;4.15;;;;;;;17.76;45.21;101498.28;4977935;28;20030;-62
2024/03/19 00:13:20;;;;;;;6.60;3.60;;;;;;;17.78;45.57;101508.97;4961643;28;20413;-61
2024/03/19 00:15:46;;;;;;;9.05;3.35;;;;;;;17.75;45.04;101512.84;4977862;28;20552;-62
2024/03/19 00:18:11;;;;;;;10.65;4.80;;;;;;;17.72;45.30;101506.91;4977713;28;20031;-62
2024/03/19 00:20:37;;;;;;;7.70;3.67;;;;;;;17.67;45.08;101504.66;4995025;28;20110;-61
2024/03/19 00:23:02;;;;;;;8.32;3.22;;;;;;;17.68;45.61;101510.91;4961427;28;20391;-61
2024/03/19 00:25:27;;;;;;;9.05;3.47;;;;;;;17.64;45.01;101515.84;4995023;28;20514;-62
2024/03/19 00:27:53;;;;;;;10.20;4.07;;;;;;;17.58;45.62;101499.34;4977382;28;20116;-61
2024/03/19 00:30:18;;;;;;;6.28;3.30;;;;;;;17.56;45.84;101506.78;4994975;28;20545;-61
2024/03/19 00:32:44;;;;;;;6.00;3.92;;;;;;;17.53;45.31;101505.22;4993481;28;20495;-61
2024/03/19 00:35:09;;;;;;;6.03;3.38;;;;;;;17.47;45.69;101498.53;4993708;28;20100;-61
2024/03/19 00:37:39;;;;;;;9.35;3.15;;;;;;;17.45;45.91;101508.69;4961387;28;20031;-62
2024/03/19 00:40:10;;;;;;;8.60;4.10;;;;;;;17.42;45.82;101505.44;4977644;28;20034;-61
2024/03/19 00:42:43;;;;;;;5.70;3.33;;;;;;;17.38;45.49;101498.66;4993493;28;20042;-62
2024/03/19 00:45:09;;;;;;;6.93;2.80;;;;;;;17.33;45.19;101495.56;4995340;28;20038;-61
2024/03/19 00:47:34;;;;;;;7.00;3.90;;;;;;;17.29;45.74;101494.16;4977714;28;20030;-61
2024/03/19 00:50:00;;;;;;;6.63;3.50;;;;;;;17.27;45.28;101493.47;4961567;28;20025;-61
2024/03/19 00:52:26;;;;;;;6.20;3.95;;;;;;;17.22;45.10;101487.69;4978055;28;20085;-62
2024/03/19 00:54:52;;;;;;;5.22;3.33;;;;;;;17.23;44.77;101494.78;4993140;28;20413;-69
2024/03/19 00:57:17;;;;;;;6.57;3.53;;;;;;;17.21;45.40;101486.81;4977114;28;20449;-69
2024/03/19 00:59:42;;;;;;;8.13;2.88;;;;;;;17.19;45.32;101483.44;4994301;28;20054;-69
2024/03/19 01:02:08;;;;;;;7.90;3.50;;;;;;;17.17;45.59;101473.75;4976727;28;20019;-69
2024/03/19 01:04:36;;;;;;;4.50;2.85;;;;;;;17.15;46.20;101475.75;4993062;28;20117;-69
2024/03/19 01:07:01;;;;;;;3.30;2.88;;;;;;;17.14;46.49;101474.06;4994534;28;20034;-69
2024/03/19 01:09:27;;;;;;;7.78;3.25;;;;;;;17.12;45.29;101470.66;4994182;28;20104;-69
2024/03/19 01:11:53;;;;;;;7.07;3.05;;;;;;;17.14;45.97;101468.66;4994066;28;20050;-69
2024/03/19 01:14:20;;;;;;;7.50;3.80;;;;;;;17.13;45.64;101461.53;4993813;28;20109;-69
2024/03/19 01:16:45;;;;;;;4.97;2.55;;;;;;;17.13;46.26;101458.81;4977202;28;20085;-69
2024/03/19 01:19:10;;;;;;;5.55;3.40;;;;;;;17.14;45.88;101464.06;4994383;28;20048;-69
2024/03/19 01:21:36;;;;;;;6.97;3.78;;;;;;;17.12;45.70;101457.09;4994028;28;20034;-69
2024/03/19 01:24:01;;;;;;;7.72;2.92;;;;;;;17.16;45.52;101458.50;4976661;28;20482;-69
2024/03/19 01:26:27;;;;;;;8.07;3.58;;;;;;;17.15;45.97;101448.69;4994209;28;20106;-69
2024/03/19 01:28:52;;;;;;;6.15;3.13;;;;;;;17.17;46.29;101441.28;4960465;28;20517;-69
2024/03/19 01:31:17;;;;;;;9.13;4.07;;;;;;;17.17;45.69;101438.56;4960400;28;20096;-68
2024/03/19 01:33:43;;;;;;;4.10;3.00;;;;;;;17.19;46.47;101441.97;4976344;28;20113;-69
2024/03/19 01:36:08;;;;;;;6.15;3.22;;;;;;;17.19;46.29;101448.22;4960219;28;20471;-69
2024/03/19 01:38:35;;;;;;;5.57;3.47;;;;;;;17.23;45.79;101454.16;4993787;28;20409;-68
2024/03/19 01:41:01;;;;;;;8.77;3.00;;;;;;;17.24;46.78;101450.47;4993748;28;20088;-69
2024/03/19 01:43:26;;;;;;;11.07;4.15;;;;;;;17.26;46.88;101445.72;4992517;28;20027;-69
2024/03/19 01:46:07;;;;;;;6.05;3.45;;;;;;;17.29;46.44;101445.41;4976231;28;20034;-69
2024/03/19 01:48:33;;;;;;;6.55;3.00;;;;;;;17.30;46.76;101453.41;4993671;28;20026;-68
2024/03/19 01:50:59;;;;;;;6.22;3.40;;;;;;;17.33;46.47;101452.22;4976160;28;20031;-69
2024/03/19 01:53:25;;;;;;;5.95;3.33;;;;;;;17.33;45.95;101446.81;4959880;28;20150;-69
2024/03/19 01:55:51;;;;;;;16.85;4.93;;;;;;;17.41;45.88;101460.41;4976120;28;20049;-69
2024/03/19 01:58:16;;;;;;;10.73;4.07;;;;;;;17.42;46.30;101464.81;4976132;28;20031;-69
2024/03/19 02:00:41;;;;;;;8.82;4.00;;;;;;;17.45;46.78;101450.94;4993409;28;20026;-69
2024/03/19 02:03:07;;;;;;;6.22;3.65;;;;;;;17.49;47.11;101457.75;4992418;28;20030;-62
2024/03/19 02:05:32;;;;;;;7.30;3.78;;;;;;;17.51;47.33;101457.59;4976056;28;20088;-62
2024/03/19 02:07:58;;;;;;;9.20;3.22;;;;;;;17.52;46.09;101452.03;4960055;28;20034;-61
2024/03/19 02:10:23;;;;;;;10.63;4.13;;;;;;;17.54;46.85;101452.75;4975901;28;20042;-62
2024/03/19 02:12:48;;;;;;;12.93;4.57;;;;;;;17.58;46.72;101459.56;4993079;28;20164;-62
2024/03/19 02:15:15;;;;;;;5.13;3.08;;;;;;;17.59;47.06;101461.25;4981449;28;20109;-62
2024/03/19 02:17:41;;;;;;;11.35;3.97;;;;;;;17.59;46.75;101458.53;4994991;28;20034;-62
2024/03/19 02:20:12;;;;;;;8.73;4.38;;;;;;;17.60;46.68;101457.53;5012773;28;20041;-61
2024/03/19 02:22:41;;;;;;;8.05;3.55;;;;;;;17.60;47.39;101443.97;4996217;28;20057;-61
2024/03/19 02:25:06;;;;;;;6.80;4.03;;;;;;;17.64;47.04;101439.97;4995298;28;20113;-61
2024/03/19 02:27:32;;;;;;;7.95;4.25;;;;;;;17.68;46.55;101443.19;5016026;28;20112;-61
2024/03/19 02:29:58;;;;;;;13.90;3.88;;;;;;;17.70;46.59;101450.13;4999198;28;20065;-61
2024/03/19 02:32:23;;;;;;;9.20;3.60;;;;;;;17.73;47.01;101449.81;4999184;28;20510;-62
2024/03/19 02:34:49;;;;;;;6.95;3.75;;;;;;;17.77;47.22;101455.78;4983047;28;20034;-62
2024/03/19 02:37:14;;;;;;;8.32;3.50;;;;;;;17.82;47.34;101454.28;4999686;28;20038;-62
2024/03/19 02:39:40;;;;;;;12.95;3.60;;;;;;;17.84;47.31;101452.25;4999131;28;20412;-62
2024/03/19 02:42:05;;;;;;;7.75;4.43;;;;;;;17.86;46.77;101449.41;4998971;28;20549;-62
2024/03/19 02:44:30;;;;;;;7.53;4.00;;;;;;;17.88;47.45;101441.94;5016547;28;20584;-61
2024/03/19 02:46:56;;;;;;;8.88;4.00;;;;;;;17.91;46.68;101447.03;4998910;28;20026;-61
2024/03/19 02:49:21;;;;;;;9.63;4.40;;;;;;;17.91;47.52;101452.47;4998985;28;20045;-62
2024/03/19 02:51:46;;;;;;;7.82;3.80;;;;;;;17.91;47.07;101450.63;4982569;28;20025;-62
2024/03/19 02:54:12;;;;;;;6.95;3.60;;;;;;;17.92;46.79;101455.00;4982408;28;20076;-61
2024/03/19 02:56:37;;;;;;;8.90;3.70;;;;;;;17.93;47.33;101459.44;5015836;28;20034;-61
2024/03/19 02:59:02;;;;;;;5.88;3.83;;;;;;;17.90;47.24;101448.91;4998779;28;20109;-61
2024/03/19 03:01:28;;;;;;;9.07;4.43;;;;;;;17.90;47.25;101457.03;4998555;28;20030;-61
2024/03/19 03:03:54;;;;;;;6.60;3.80;;;;;;;17.91;46.87;101453.31;4982504;28;20041;-62
2024/03/19 03:06:19;;;;;;;12.23;4.20;;;;;;;17.93;47.29;101456.72;5016206;28;20030;-61
2024/03/19 03:08:45;;;;;;;10.27;4.68;;;;;;;17.93;46.81;101461.28;4998810;28;20053;-62
2024/03/19 03:11:10;;;;;;;9.68;4.72;;;;;;;17.93;47.08;101462.13;4998510;28;20143;-62
2024/03/19 03:13:36;;;;;;;7.20;3.90;;;;;;;17.93;46.75;101456.72;4998355;28;20053;-61
2024/03/19 03:16:01;;;;;;;11.25;4.65;;;;;;;17.93;47.58;101456.72;5015902;28;20030;-62
2024/03/19 03:18:26;;;;;;;10.15;4.68;;;;;;;17.92;47.62;101457.72;4998491;28;20041;-62
2024/03/19 03:20:52;;;;;;;9.80;4.68;;;;;;;17.94;47.70;101458.44;4998366;28;20030;-62
2024/03/19 03:23:17;;;;;;;9.30;4.10;;;;;;;17.92;47.62;101460.44;4998234;28;20029;-61
2024/03/19 03:25:43;;;;;;;12.10;4.32;;;;;;;17.92;47.28;101459.59;4998133;28;20088;-61
2024/03/19 03:28:08;;;;;;;8.00;4.85;;;;;;;17.92;47.03;101460.44;4998120;28;20044;-62
2024/03/19 03:30:33;;;;;;;8.80;4.28;;;;;;;17.93;47.50;101456.72;5015546;28;20573;-62
2024/03/19 03:32:59;;;;;;;9.93;4.18;;;;;;;17.93;47.36;101458.56;4998035;28;20041;-62
2024/03/19 03:35:24;;;;;;;9.57;4.53;;;;;;;17.96;47.29;101460.97;4998192;28;20034;-62
2024/03/19 03:37:50;;;;;;;9.18;4.00;;;;;;;17.96;48.12;101467.25;4981445;28;20030;-61
2024/03/19 03:40:18;;;;;;;12.88;5.38;;;;;;;17.95;47.43;101454.69;4998529;28;20026;-61
2024/03/19 03:42:47;;;;;;;7.80;4.50;;;;;;;17.99;47.32;101458.78;4982062;28;20449;-61
2024/03/19 03:45:14;;;;;;;8.15;4.60;;;;;;;18.02;47.73;101471.16;4998012;28;20038;-61
2024/03/19 03:47:40;;;;;;;5.93;3.83;;;;;;;18.02;47.00;101469.31;4997806;28;20030;-62
2024/03/19 03:50:07;;;;;;;8.80;4.40;;;;;;;18.04;47.75;101474.56;4997931;28;20034;-62
2024/03/19 03:52:32;;;;;;;7.70;4.05;;;;;;;18.02;47.69;101473.88;4997937;28;20030;-61
2024/03/19 03:55:05;;;;;;;15.82;4.85;;;;;;;18.04;47.26;101479.97;4997690;28;20041;-61
2024/03/19 03:57:35;;;;;;;8.95;4.40;;;;;;;18.04;47.29;101480.84;4997681;28;20033;-61
2024/03/19 04:00:06;;;;;;;12.52;5.03;;;;;;;18.03;46.90;101471.00;4998253;28;20026;-61
2024/03/19 04:02:31;;;;;;;11.20;4.68;;;;;;;18.01;47.29;101473.03;4982297;28;20494;-61
2024/03/19 04:04:56;;;;;;;9.68;4.07;;;;;;;18.02;47.10;101477.44;4998546;28;20030;-61
2024/03/19 04:07:22;;;;;;;9.10;4.50;;;;;;;18.02;47.38;101484.72;4998535;28;20030;-62
2024/03/19 04:09:47;;;;;;;9.45;4.50;;;;;;;18.02;47.78;101487.44;5016201;28;20041;-62
2024/03/19 04:12:12;;;;;;;9.32;4.15;;;;;;;18.04;47.29;101491.69;4997544;28;20056;-61
2024/03/19 04:14:38;;;;;;;7.43;3.75;;;;;;;18.02;47.30;101482.88;4997500;28;20041;-62
2024/03/19 04:17:03;;;;;;;9.07;4.43;;;;;;;18.07;47.88;101489.66;5014748;28;20057;-61
2024/03/19 04:19:29;;;;;;;10.77;3.90;;;;;;;18.08;47.73;101499.50;4997254;28;20037;-62
2024/03/19 04:21:54;;;;;;;7.88;4.07;;;;;;;18.08;47.51;101503.06;5014527;28;20057;-63
2024/03/19 04:24:19;;;;;;;14.23;4.13;;;;;;;18.09;47.85;101503.91;5014715;28;20049;-62
2024/03/19 04:26:45;;;;;;;8.07;3.92;;;;;;;18.10;47.36;101497.47;4980979;28;20029;-62
2024/03/19 04:29:15;;;;;;;10.27;4.03;;;;;;;18.10;47.56;101501.03;5014809;28;20044;-62
2024/03/19 04:31:41;;;;;;;9.40;3.88;;;;;;;18.11;47.07;101501.88;5014962;28;20054;-61
2024/03/19 04:34:07;;;;;;;13.68;4.55;;;;;;;18.09;47.71;101503.91;4981374;28;20030;-61
2024/03/19 04:36:32;;;;;;;8.85;4.60;;;;;;;18.04;47.80;101494.38;4981488;28;20026;-61
2024/03/19 04:38:58;;;;;;;7.25;4.40;;;;;;;18.06;47.65;101505.09;4997831;28;20030;-61
2024/03/19 04:41:24;;;;;;;9.98;3.85;;;;;;;18.04;47.54;101507.94;4997426;28;20146;-61
2024/03/19 04:43:49;;;;;;;7.05;4.07;;;;;;;18.03;47.16;101506.22;4980628;28;20041;-61
2024/03/19 04:46:15;;;;;;;11.38;4.03;;;;;;;17.99;47.11;101504.88;4996725;28;20117;-62
2024/03/19 04:48:40;;;;;;;14.25;4.45;;;;;;;17.99;47.19;101504.88;4995836;28;20038;-61
2024/03/19 04:51:06;;;;;;;11.65;4.60;;;;;;;17.99;47.69;101502.16;4996483;28;20030;-62
2024/03/19 04:53:31;;;;;;;7.82;4.03;;;;;;;17.96;47.44;101497.06;4996324;28;20046;-62
2024/03/19 04:55:56;;;;;;;15.38;4.25;;;;;;;17.94;47.38;101499.09;4996159;28;20100;-61
2024/03/19 04:58:22;;;;;;;11.05;4.45;;;;;;;17.96;47.43;101505.19;4996664;28;20087;-62
2024/03/19 05:00:47;;;;;;;13.73;4.63;;;;;;;17.97;47.12;101506.91;4996530;28;20042;-61
2024/03/19 05:03:13;;;;;;;9.55;4.00;;;;;;;17.96;47.18;101505.19;4996444;28;20022;-62
2024/03/19 05:05:38;;;;;;;10.32;3.90;;;;;;;17.96;47.33;101496.19;4996308;28;20099;-61
2024/03/19 05:08:04;;;;;;;8.20;4.63;;;;;;;17.99;46.53;101501.31;4996167;28;20525;-62
2024/03/19 05:10:29;;;;;;;8.07;3.67;;;;;;;17.98;47.32;101503.16;5013657;28;20034;-61
2024/03/19 05:12:54;;;;;;;6.07;4.70;;;;;;;18.02;48.00;101504.56;5013698;28;20045;-62
2024/03/19 05:15:20;;;;;;;15.18;5.15;;;;;;;18.01;47.17;101505.56;4980013;28;20056;-62
2024/03/19 05:17:45;;;;;;;6.13;3.58;;;;;;;18.01;47.40;101496.56;4996163;28;20070;-61
2024/03/19 05:20:11;;;;;;;7.18;3.95;;;;;;;18.01;47.06;101496.56;5013639;28;20497;-62
2024/03/19 05:22:36;;;;;;;9.95;3.97;;;;;;;18.02;47.69;101501.84;5013507;28;20034;-61
2024/03/19 05:25:02;;;;;;;8.25;4.38;;;;;;;18.01;47.80;101496.56;4995971;28;20030;-61
2024/03/19 05:27:27;;;;;;;10.07;3.65;;;;;;;17.99;47.65;101504.88;5013455;28;20026;-62
2024/03/19 05:29:53;;;;;;;8.65;3.78;;;;;;;18.00;48.12;101493.03;4996170;28;20084;-61
2024/03/19 05:32:19;;;;;;;8.45;3.80;;;;;;;17.99;47.52;101499.44;5012535;28;20034;-62
2024/03/19 05:34:44;;;;;;;12.00;4.20;;;;;;;18.01;47.28;101505.56;4996111;28;20087;-62
2024/03/19 05:37:10;;;;;;;5.63;3.63;;;;;;;17.99;47.70;101501.31;4979678;28;20034;-62
2024/03/19 05:39:35;;;;;;;9.48;3.80;;;;;;;18.02;47.22;101501.84;4979537;28;20034;-62
2024/03/19 05:42:00;;;;;;;6.55;3.85;;;;;;;18.00;47.29;101500.31;4995888;28;20379;-61
2024/03/19 05:44:26;;;;;;;9.43;3.63;;;;;;;18.00;47.19;101505.72;5013478;28;20041;-62
2024/03/19 05:46:51;;;;;;;5.80;3.65;;;;;;;17.99;47.38;101510.28;4979799;28;20084;-62
2024/03/19 05:49:16;;;;;;;5.75;3.42;;;;;;;17.99;47.04;101509.44;4979594;28;20448;-62
2024/03/19 05:51:42;;;;;;;11.90;3.45;;;;;;;18.05;46.95;101516.94;4999314;28;20036;-61
2024/03/19 05:54:08;;;;;;;8.85;3.95;;;;;;;18.06;47.56;101521.38;4995905;28;20042;-62
2024/03/19 05:56:33;;;;;;;9.10;3.78;;;;;;;18.08;46.98;101518.47;4995522;28;20042;-62
2024/03/19 05:58:58;;;;;;;11.43;4.40;;;;;;;18.10;47.04;101517.28;4995634;28;20072;-62
2024/03/19 06:01:24;;;;;;;12.90;4.80;;;;;;;18.10;47.45;101521.88;4995134;28;20124;-61
2024/03/19 06:03:49;;;;;;;12.68;3.90;;;;;;;18.15;46.63;101527.66;4995546;28;20034;-62
2024/03/19 06:06:14;;;;;;;10.57;4.60;;;;;;;18.13;47.00;101521.53;4979228;28;20042;-61
2024/03/19 06:08:40;;;;;;;4.95;2.88;;;;;;;18.17;47.01;101525.66;4995522;28;20026;-61
2024/03/19 06:11:07;;;;;;;6.47;3.15;;;;;;;18.20;47.36;101522.63;4995452;28;20030;-61
2024/03/19 06:13:33;;;;;;;11.52;3.38;;;;;;;18.22;47.62;101534.16;4978937;28;20034;-61
2024/03/19 06:15:58;;;;;;;9.80;3.15;;;;;;;18.20;46.82;101528.03;4995583;28;20030;-61
2024/03/19 06:18:24;;;;;;;6.25;3.00;;;;;;;18.21;47.43;101535.16;5013044;28;20556;-63
2024/03/19 06:20:49;;;;;;;7.78;2.83;;;;;;;18.21;47.13;101527.88;4995439;28;20128;-62
2024/03/19 06:23:14;;;;;;;12.63;3.13;;;;;;;18.21;47.23;101536.00;5012729;28;20030;-62
2024/03/19 06:25:40;;;;;;;9.30;3.22;;;;;;;18.23;47.44;101535.84;4995227;28;20037;-62
2024/03/19 06:28:06;;;;;;;8.70;3.20;;;;;;;18.22;47.34;101534.16;4995244;28;20030;-62
2024/03/19 06:30:31;;;;;;;4.68;3.47;;;;;;;18.23;46.92;101539.41;5012455;28;20100;-64
2024/03/19 06:32:58;;;;;;;6.50;3.58;;;;;;;18.24;47.08;101545.69;5012609;28;20022;-62
2024/03/19 06:35:23;;;;;;;3.92;2.60;;;;;;;18.24;47.30;101537.53;4995240;28;20018;-62
2024/03/19 06:37:48;;;;;;;8.13;3.42;;;;;;;18.23;46.80;101539.41;4995100;28;20072;-62
2024/03/19 06:40:14;;;;;;;6.20;3.00;;;;;;;18.26;46.97;101538.22;4995189;28;20061;-62
2024/03/19 06:42:39;;;;;;;7.35;2.53;;;;;;;18.29;47.51;101543.31;4994789;28;20022;-62
2024/03/19 06:45:08;;;;;;;6.28;2.58;;;;;;;18.32;47.61;101543.00;4995031;28;20105;-62
2024/03/19 06:47:37;;;;;;;7.65;2.88;;;;;;;18.35;47.08;101553.53;5012811;28;20029;-62
2024/03/19 06:50:13;;;;;;;4.13;2.50;;;;;;;18.36;47.27;101556.09;5141935;22;20054;-61
2024/03/19 06:52:39;;;;;;;6.95;2.70;;;;;;;18.41;47.61;101555.59;4992407;28;20513;-62
2024/03/19 06:55:04;;;;;;;7.93;2.63;;;;;;;18.45;47.38;101557.81;4991888;28;20034;-62
2024/03/19 06:57:32;;;;;;;9.18;3.30;;;;;;;18.47;47.65;101554.97;4992046;28;20410;-62
2024/03/19 06:59:58;;;;;;;4.05;2.67;;;;;;;18.50;47.22;101557.38;4992935;28;20032;-61
2024/03/19 07:02:29;;;;;;;5.18;1.67;;;;;;;18.54;47.21;101554.16;4991593;28;20398;-62
2024/03/19 07:04:55;;;;;;;11.32;2.50;;;;;;;18.54;47.32;101547.88;4992111;28;20118;-62
2024/03/19 07:07:21;;;;;;;6.82;2.90;;;;;;;18.55;47.53;101541.47;4991782;28;20461;-62
2024/03/19 07:09:48;;;;;;;6.38;2.30;;;;;;;18.54;47.86;101551.47;4991857;28;20044;-62
2024/03/19 07:12:13;;;;;;;7.70;2.20;;;;;;;18.57;47.46;101558.41;4992342;28;20556;-62
2024/03/19 07:14:38;;;;;;;3.38;2.22;;;;;;;18.62;47.14;101566.09;4995146;28;20034;-62
2024/03/19 07:17:04;;;;;;;4.72;3.13;;;;;;;18.62;47.32;101561.50;4994985;28;20035;-62
2024/03/19 07:19:30;;;;;;;6.85;2.80;;;;;;;18.68;47.12;101565.44;4995405;28;20411;-62
2024/03/19 07:21:55;;;;;;;8.77;2.58;;;;;;;18.69;47.35;101575.25;4995277;28;20038;-62
2024/03/19 07:24:21;;;;;;;10.55;2.67;;;;;;;18.70;47.10;101575.13;4996291;28;20030;-62
2024/03/19 07:26:46;;;;;;;6.22;2.45;;;;;;;18.70;47.43;101575.13;4996098;28;20042;-61
2024/03/19 07:29:12;;;;;;;4.70;2.25;;;;;;;18.67;47.20;101570.00;4996229;28;20125;-61
2024/03/19 07:31:40;;;;;;;4.72;1.98;;;;;;;18.69;46.78;101572.56;4978630;28;20068;-61
2024/03/19 07:34:08;;;;;;;5.80;2.13;;;;;;;18.72;46.99;101574.94;4994796;28;20042;-61
2024/03/19 07:36:34;;;;;;;6.60;2.60;;;;;;;18.75;47.24;101578.19;4994978;28;20038;-61
2024/03/19 07:39:00;;;;;;;4.50;2.40;;;;;;;18.80;46.79;101570.38;4994795;28;20129;-61
2024/03/19 07:41:25;;;;;;;6.57;2.50;;;;;;;18.88;46.96;101570.41;4994779;28;20153;-61
2024/03/19 07:43:51;;;;;;;4.65;1.75;;;;;;;18.98;47.13;101565.69;4995524;28;20077;-62
2024/03/19 07:46:16;;;;;;;6.85;1.77;;;;;;;19.08;47.38;101566.41;4978302;28;20058;-62
2024/03/19 07:48:43;;;;;;;6.72;3.47;;;;;;;19.17;46.51;101559.97;4994294;28;20165;-61
2024/03/19 07:51:08;;;;;;;5.60;1.83;;;;;;;19.29;47.09;101563.19;4958752;28;20043;-61
2024/03/19 07:53:34;;;;;;;4.57;1.60;;;;;;;19.39;46.51;101554.94;4958956;28;20503;-62
2024/03/19 07:55:59;;;;;;;5.35;2.78;;;;;;;19.48;46.23;101560.22;4975273;28;20034;-61
2024/03/19 07:58:25;;;;;;;8.23;2.15;;;;;;;19.57;46.58;101563.81;4976316;28;20403;-61
2024/03/19 08:00:51;;;;;;;6.53;1.70;;;;;;;19.67;46.69;101559.88;4975017;28;20138;-61
2024/03/19 08:03:18;;;;;;;4.07;1.88;;;;;;;19.77;46.88;101570.56;4975005;28;20499;-61
2024/03/19 08:05:44;;;;;;;3.67;1.42;;;;;;;19.82;46.35;101551.88;4975090;28;20078;-61
2024/03/19 08:08:09;;;;;;;6.10;2.10;;;;;;;19.90;46.34;101565.47;4976261;28;20042;-62
2024/03/19 08:10:34;;;;;;;3.55;2.10;;;;;;;19.93;46.34;101550.69;4974960;28;20423;-61
2024/03/19 08:13:00;;;;;;;3.15;2.08;;;;;;;19.97;46.59;101558.31;4974686;28;20041;-61
2024/03/19 08:15:25;;;;;;;3.88;1.85;;;;;;;20.03;46.50;101556.78;4974719;28;20081;-61
2024/03/19 08:17:52;;;;;;;5.45;1.92;;;;;;;20.07;46.27;101556.25;4974593;28;20118;-61
2024/03/19 08:20:18;;;;;;;3.75;1.60;;;;;;;20.12;45.87;101559.31;4974776;28;20162;-61
2024/03/19 08:22:43;;;;;;;8.73;1.70;;;;;;;20.17;46.36;101556.94;4974585;28;20109;-61
2024/03/19 08:25:10;;;;;;;3.05;1.60;;;;;;;20.27;45.80;101563.03;4974899;28;20034;-61
2024/03/19 08:27:36;;;;;;;4.90;1.85;;;;;;;20.37;45.28;101568.31;4975742;28;20042;-62
2024/03/19 08:30:05;;;;;;;3.90;2.05;;;;;;;20.45;45.52;101561.97;4975733;28;20403;-61
2024/03/19 08:32:30;;;;;;;7.93;2.13;;;;;;;20.54;45.26;101566.38;4974332;28;20092;-62
2024/03/19 08:34:55;;;;;;;8.23;2.40;;;;;;;20.64;45.27;101570.59;4974454;28;20114;-62
2024/03/19 08:37:21;;;;;;;5.00;1.65;;;;;;;20.70;45.31;101559.00;4958363;28;20118;-62
2024/03/19 08:39:46;;;;;;;5.20;2.33;;;;;;;20.79;45.22;101562.53;4958479;28;20042;-62
2024/03/19 08:42:12;;;;;;;9.70;1.40;;;;;;;20.90;45.33;101562.97;4975688;28;20114;-61
2024/03/19 08:44:37;;;;;;;7.03;1.35;;;;;;;20.99;45.14;101555.63;4958718;28;20465;-61
2024/03/19 08:47:02;;;;;;;6.32;1.42;;;;;;;21.07;44.87;101550.16;4974927;28;20051;-61
2024/03/19 08:49:28;;;;;;;7.35;2.00;;;;;;;21.17;44.95;101561.66;4981376;28;20050;-61
2024/03/19 08:51:53;;;;;;;3.85;1.15;;;;;;;21.26;44.05;101548.81;4977095;28;20034;-62
2024/03/19 08:54:19;;;;;;;6.68;2.22;;;;;;;21.38;43.73;101561.84;4977150;28;20046;-61
2024/03/19 08:56:44;;;;;;;5.85;1.60;;;;;;;21.52;43.72;101564.81;4994593;28;20041;-62
2024/03/19 08:59:10;;;;;;;7.38;1.67;;;;;;;21.65;43.40;101565.03;4977152;28;20038;-61
2024/03/19 09:01:35;;;;;;;5.10;1.13;;;;;;;21.84;43.60;101564.53;4994112;28;20085;-63
2024/03/19 09:04:03;;;;;;;2.35;1.27;;;;;;;22.26;42.63;101563.97;4977009;28;20031;-61
2024/03/19 09:06:30;;;;;;;4.05;1.17;;;;;;;22.61;41.88;101569.53;4977429;28;20033;-61
2024/03/19 09:08:56;;;;;;;6.97;1.75;;;;;;;22.84;42.25;101569.44;4977152;28;20034;-62
2024/03/19 09:11:21;;;;;;;6.80;1.15;;;;;;;23.00;42.28;101568.38;4994412;28;20046;-61
2024/03/19 09:13:46;;;;;;;8.35;1.52;;;;;;;23.21;41.91;101573.88;4976956;28;20582;-61
2024/03/19 09:16:13;;;;;;;13.02;1.50;;;;;;;23.25;41.37;101569.72;4960573;28;20113;-61
2024/03/19 09:18:40;;;;;;;3.95;1.30;;;;;;;23.37;41.41;101562.69;4994040;28;20033;-62
2024/03/19 09:21:05;;;;;;;10.98;1.35;;;;;;;23.67;41.12;101561.53;4977060;28;20078;-61
2024/03/19 09:23:30;;;;;;;5.10;1.15;;;;;;;23.77;41.04;101561.22;4994096;28;20513;-61
2024/03/19 09:25:56;;;;;;;6.50;1.50;;;;;;;23.95;40.75;101558.00;4976584;28;20093;-62
2024/03/19 09:28:21;;;;;;;4.22;1.70;;;;;;;24.08;40.46;101560.84;4976417;28;20061;-61
2024/03/19 09:31:08;;;;;;;5.15;1.13;;;;;;;24.27;40.11;101562.88;4976643;28;20092;-61
2024/03/19 09:33:34;;;;;;;5.05;1.40;;;;;;;24.53;40.30;101562.22;4976830;28;20467;-61
2024/03/19 09:35:59;;;;;;;3.88;1.15;;;;;;;24.67;39.41;101553.88;4976170;28;20038;-61
2024/03/19 09:38:24;;;;;;;2.60;1.02;;;;;;;24.99;39.49;101551.47;4976513;28;20568;-62
2024/03/19 09:40:55;;;;;;;7.53;1.38;;;;;;;25.11;39.22;101550.69;4993719;28;20030;-61
2024/03/19 09:43:24;;;;;;;4.32;1.48;;;;;;;25.04;39.69;101554.47;4976211;28;20022;-61
2024/03/19 09:45:51;;;;;;;5.80;1.10;;;;;;;25.07;39.25;101549.38;4994051;28;20054;-61
2024/03/19 09:48:18;;;;;;;3.15;1.00;;;;;;;25.32;38.70;101546.94;4993763;28;20057;-61
2024/03/19 09:50:44;;;;;;;2.03;0.70;;;;;;;25.91;37.60;101547.84;4972578;28;20073;-63
2024/03/19 09:53:18;;;;;;;3.90;1.00;;;;;;;25.98;37.74;101545.97;4972862;28;20118;-63
2024/03/19 09:55:44;;;;;;;1.70;0.88;;;;;;;25.93;37.92;101548.50;4972940;28;20502;-62
2024/03/19 09:58:10;;;;;;;6.93;1.17;;;;;;;26.14;37.26;101549.34;4974211;28;20054;-63
2024/03/19 10:00:36;;;;;;;2.22;0.95;;;;;;;26.32;37.80;101544.88;4956826;28;20035;-63
2024/03/19 10:03:01;;;;;;;7.38;1.17;;;;;;;26.66;37.19;101549.22;4972901;28;20031;-63
2024/03/19 10:05:26;;;;;;;6.10;1.10;;;;;;;26.95;37.16;101545.94;4974108;28;20035;-63
2024/03/19 10:07:53;;;;;;;2.65;0.90;;;;;;;27.32;36.11;101549.75;4972684;28;20060;-63
2024/03/19 10:10:19;;;;;;;3.20;0.80;;;;;;;27.73;36.61;101536.34;4972872;28;20117;-63
2024/03/19 10:12:44;;;;;;;6.20;0.90;;;;;;;28.17;35.24;101540.00;4972628;28;20517;-63
2024/03/19 10:15:21;;;;;;;4.05;0.95;;;;;;;28.72;34.89;101536.25;4973831;28;20118;-63
2024/03/19 10:17:50;;;;;;;5.38;1.10;;;;;;;29.25;34.20;101530.88;4972704;28;20120;-63
2024/03/19 10:20:16;;;;;;;7.53;1.00;;;;;;;29.72;33.53;101522.69;4973805;28;20101;-64
2024/03/19 10:22:45;;;;;;;2.92;0.90;;;;;;;30.12;33.50;101523.72;4972464;28;20125;-64
2024/03/19 10:25:12;;;;;;;5.00;1.08;;;;;;;30.43;33.38;101528.03;4973787;28;20098;-64
2024/03/19 10:27:41;;;;;;;6.70;1.75;;;;;;;30.69;32.56;101532.16;4973706;28;20057;-64
2024/03/19 10:30:08;;;;;;;3.58;1.08;;;;;;;30.54;33.14;101528.00;4972595;28;20034;-63
2024/03/19 10:32:35;;;;;;;5.93;1.33;;;;;;;30.31;33.03;101524.41;4972293;28;20129;-63
2024/03/19 10:35:00;;;;;;;5.00;1.05;;;;;;;29.81;33.42;101526.81;4972672;28;20031;-63
2024/03/19 10:37:26;;;;;;;4.53;1.08;;;;;;;29.86;33.43;101519.50;4972387;28;20037;-64
2024/03/19 10:39:51;;;;;;;5.88;1.35;;;;;;;29.60;33.72;101528.19;4973629;28;20037;-64
2024/03/19 10:42:17;;;;;;;3.65;0.90;;;;;;;29.30;33.67;101519.97;4972429;28;20026;-64
2024/03/19 10:44:44;;;;;;;1.85;0.90;;;;;;;28.94;34.14;101525.56;4972429;28;20391;-62
2024/03/19 10:47:12;;;;;;;5.03;0.93;;;;;;;29.03;33.35;101515.88;4957215;28;20038;-62
2024/03/19 10:49:37;;;;;;;2.60;0.88;;;;;;;28.81;33.84;101520.22;4984493;28;20054;-62
2024/03/19 10:52:12;;;;;;;3.78;1.42;;;;;;;28.83;34.54;101513.41;4979288;28;20124;-63
2024/03/19 10:54:41;;;;;;;5.07;0.85;;;;;;;28.66;33.94;101514.25;4979282;28;20030;-63
2024/03/19 10:57:12;;;;;;;1.40;0.70;;;;;;;28.48;33.02;101519.72;4979164;28;20516;-63
2024/03/19 10:59:37;;;;;;;2.47;0.95;;;;;;;28.40;33.20;101518.13;4979270;28;20026;-64
2024/03/19 11:02:06;;;;;;;2.75;0.82;;;;;;;28.96;33.39;101511.50;4962944;28;20401;-64
2024/03/19 11:04:32;;;;;;;4.88;0.73;;;;;;;29.36;32.99;101513.50;4979069;28;20038;-64
2024/03/19 11:07:01;;;;;;;3.50;0.68;;;;;;;29.67;32.26;101511.50;4979117;28;20118;-64
2024/03/19 11:09:28;;;;;;;2.38;0.63;;;;;;;29.92;31.73;101512.16;4979029;28;20117;-65
2024/03/19 11:11:55;;;;;;;5.22;2.13;;;;;;;30.18;31.74;101503.38;4978830;28;20034;-65
2024/03/19 11:14:23;;;;;;;2.95;0.75;;;;;;;30.20;31.69;101508.69;4979066;28;20122;-62
2024/03/19 11:16:49;;;;;;;2.83;1.17;;;;;;;30.35;31.09;101515.38;4962808;28;20026;-64
2024/03/19 11:19:25;;;;;;;4.47;1.20;;;;;;;30.24;31.34;101505.16;4978694;28;20043;-63